Etusivu
METAR-TAF:

METAR-TAF

Lentoasemat :

Marshfield Municipal Airport

Marshfield, Wisconsin, Yhdysvallat

Leveyspiiri: 44-38-17N, Pituuspiiri: 090-11-15W, korkeus merenpinnasta: 389 m

Tämänhetkinen sää

Tämä raportti tehtiin 13 minuuttia sitten, kello 13.21 UTC
Tuuli 11 kn etelästä
Lämpötila 22°C
Kosteus 94%
Ilmanpaine 1009 hPa
Näkyvyys: 16.1 km
Hajonneita pilviä 500 ft:n korkeudessa
Hajonneita pilviä 1000 ft:n korkeudessa

METAR: KMFI 181321Z AUTO 18011KT 10SM BKN005 BKN010 22/21 A2979 RMK AO2 T02220206

Aika: 08:34 (13:34 UTC)


TAF: puuttuu

Säähavainnot ja -ennusteet yli 4000 lentoasemalta (METAR- ja TAF-raportit).

Käytössä olevat sääasemat on merkitty karttaan keltaisilla ja punaisilla pisteillä.

Aseta hiiri pisteen päälle nähdäksesi sääaseman nimen.

Klikkaa sitten nähdäksesi säähavainnot ja -ennusteet.

Kartan vaihtaminen: klikkaa mustalla rastilla varustettuja vihreitä pisteitä, niin voit zoomata sisään; viivalla varustettua vihreää pistettä, niin voit zoomata ulos tai vihreitä nuolia, niin pääset viereisille kartoille.


METAR-TAF: